createdAt,value
2017-09-08T00:01:16.444Z,14.70
2017-09-08T00:03:46.095Z,14.74
2017-09-08T00:06:17.436Z,14.72
2017-09-08T00:08:46.997Z,14.77
2017-09-08T00:11:16.624Z,14.79
2017-09-08T00:13:46.459Z,14.79
2017-09-08T00:16:16.212Z,14.77
2017-09-08T00:18:45.703Z,14.81
2017-09-08T00:21:15.647Z,14.73
2017-09-08T00:23:46.183Z,14.72
2017-09-08T00:26:15.772Z,14.71
2017-09-08T00:28:45.576Z,14.75
2017-09-08T00:31:15.400Z,14.76
2017-09-08T00:33:44.903Z,14.78
2017-09-08T00:36:15.359Z,14.77
2017-09-08T00:38:44.962Z,14.81
2017-09-08T00:41:15.784Z,14.80
2017-09-08T00:43:45.782Z,14.82
2017-09-08T00:46:15.275Z,14.81
2017-09-08T00:48:44.826Z,14.79
2017-09-08T00:51:15.532Z,14.80
2017-09-08T00:53:44.929Z,14.85
2017-09-08T00:56:14.967Z,14.83
2017-09-08T00:58:44.923Z,14.78
2017-09-08T01:01:14.495Z,14.83
2017-09-08T01:03:43.979Z,14.83
2017-09-08T01:06:14.868Z,14.82
2017-09-08T01:08:44.581Z,14.83
2017-09-08T01:11:15.014Z,14.83
2017-09-08T01:13:45.481Z,14.81
2017-09-08T01:16:15.244Z,14.84
2017-09-08T01:18:44.595Z,14.81
2017-09-08T01:21:15.719Z,14.83
2017-09-08T01:23:45.295Z,14.77
2017-09-08T01:26:15.444Z,14.77
2017-09-08T01:28:45.287Z,14.81
2017-09-08T01:31:14.762Z,14.79
2017-09-08T01:33:44.481Z,14.81
2017-09-08T01:36:15.529Z,14.73
2017-09-08T01:38:44.865Z,14.73
2017-09-08T01:41:15.112Z,14.76
2017-09-08T01:43:45.066Z,14.74
2017-09-08T01:46:15.959Z,14.72
2017-09-08T01:48:46.808Z,14.74
2017-09-08T01:51:16.844Z,14.77
2017-09-08T01:53:46.446Z,14.77
2017-09-08T01:56:15.747Z,14.76
2017-09-08T01:58:46.126Z,14.80
2017-09-08T02:01:15.714Z,14.85
2017-09-08T02:03:45.467Z,14.86
2017-09-08T02:06:15.310Z,14.87
2017-09-08T02:08:46.158Z,14.83
2017-09-08T02:11:16.178Z,14.81
2017-09-08T02:13:47.191Z,14.76
2017-09-08T02:16:16.688Z,14.78
2017-09-08T02:18:46.183Z,14.75
2017-09-08T02:21:17.354Z,14.73
2017-09-08T02:23:46.676Z,14.70
2017-09-08T02:26:16.450Z,14.71
2017-09-08T02:28:46.283Z,14.71
2017-09-08T02:31:15.891Z,14.71
2017-09-08T02:33:45.423Z,14.74
2017-09-08T02:36:15.203Z,14.73
2017-09-08T02:38:44.897Z,14.68
2017-09-08T02:41:14.827Z,14.71
2017-09-08T02:43:44.739Z,14.69
2017-09-08T02:46:14.628Z,14.68
2017-09-08T02:48:44.075Z,14.68
2017-09-08T02:51:15.695Z,14.57
2017-09-08T02:53:45.352Z,14.61
2017-09-08T02:56:14.992Z,14.59
2017-09-08T02:58:44.556Z,14.63
2017-09-08T03:01:14.987Z,14.63
2017-09-08T03:03:44.552Z,14.66
2017-09-08T03:06:15.226Z,14.68
2017-09-08T03:08:45.099Z,14.65
2017-09-08T03:11:14.991Z,14.70
2017-09-08T03:13:44.387Z,14.73
2017-09-08T03:16:14.756Z,14.70
2017-09-08T03:18:44.766Z,14.75
2017-09-08T03:21:15.064Z,14.73
2017-09-08T03:23:44.622Z,14.78
2017-09-08T03:26:14.735Z,14.73
2017-09-08T03:28:44.623Z,14.74
2017-09-08T03:31:14.461Z,14.76
2017-09-08T03:33:44.166Z,14.75
2017-09-08T03:36:14.867Z,14.73
2017-09-08T03:38:44.770Z,14.79
2017-09-08T03:41:15.679Z,14.77
2017-09-08T03:43:45.115Z,14.78
2017-09-08T03:46:15.251Z,14.73
2017-09-08T03:48:44.999Z,14.75
2017-09-08T03:51:14.780Z,14.77
2017-09-08T03:53:43.979Z,14.72
2017-09-08T03:56:14.883Z,14.79
2017-09-08T03:58:44.080Z,14.77
2017-09-08T04:01:14.344Z,14.72
2017-09-08T04:03:43.875Z,14.73
2017-09-08T04:06:15.308Z,14.74
2017-09-08T04:08:44.823Z,14.73
2017-09-08T04:11:14.736Z,14.71
2017-09-08T04:13:44.854Z,14.72
2017-09-08T04:16:14.395Z,14.70
2017-09-08T04:18:43.888Z,14.73
2017-09-08T04:21:15.475Z,14.70
2017-09-08T04:23:45.277Z,14.70
2017-09-08T04:26:14.880Z,14.68
2017-09-08T04:28:44.463Z,14.64
2017-09-08T04:31:15.274Z,14.68
2017-09-08T04:33:44.824Z,14.68
2017-09-08T04:36:14.567Z,14.71
2017-09-08T04:38:45.194Z,14.71
2017-09-08T04:41:15.472Z,14.72
2017-09-08T04:43:45.296Z,14.72
2017-09-08T04:46:14.782Z,14.70
2017-09-08T04:48:45.055Z,14.72
2017-09-08T04:51:14.697Z,14.70
2017-09-08T04:53:44.355Z,14.72
2017-09-08T04:56:17.302Z,14.68
2017-09-08T04:58:47.044Z,14.70
2017-09-08T05:01:16.499Z,14.70
2017-09-08T05:03:46.066Z,14.71
2017-09-08T05:06:15.703Z,14.68
2017-09-08T05:08:45.079Z,14.63
2017-09-08T05:11:14.827Z,14.65
2017-09-08T05:13:44.503Z,14.68
2017-09-08T05:16:17.079Z,14.61
2017-09-08T05:18:46.708Z,14.66
2017-09-08T05:21:16.239Z,14.64
2017-09-08T05:23:45.892Z,14.61
2017-09-08T05:26:15.392Z,14.63
2017-09-08T05:28:44.694Z,14.63
2017-09-08T05:31:14.548Z,14.65
2017-09-08T05:33:44.430Z,14.66
2017-09-08T05:36:14.725Z,14.61
2017-09-08T05:38:43.924Z,14.66
2017-09-08T05:41:14.503Z,14.64
2017-09-08T05:43:43.698Z,14.70
2017-09-08T05:46:14.211Z,14.68
2017-09-08T05:48:44.075Z,14.71
2017-09-08T05:51:16.275Z,14.71
2017-09-08T05:55:12.540Z,14.69
2017-09-08T05:57:41.738Z,14.78
2017-09-08T06:00:13.114Z,14.77
2017-09-08T06:02:42.458Z,14.77
2017-09-08T06:05:12.928Z,14.81
2017-09-08T06:07:42.815Z,14.80
2017-09-08T06:10:14.067Z,14.81
2017-09-08T06:12:43.361Z,14.88
2017-09-08T06:15:20.564Z,14.87
2017-09-08T06:17:49.775Z,14.93
2017-09-08T06:20:19.267Z,14.99
2017-09-08T06:22:48.428Z,14.98
2017-09-08T06:25:19.016Z,15.06
2017-09-08T06:27:48.463Z,15.03
2017-09-08T06:30:17.643Z,15.09
2017-09-08T06:32:47.320Z,15.10
2017-09-08T06:35:16.863Z,15.12
2017-09-08T06:37:46.081Z,15.19
2017-09-08T06:40:15.571Z,15.26
2017-09-08T06:42:45.054Z,15.32
2017-09-08T06:45:15.275Z,15.40
2017-09-08T06:47:44.500Z,15.42
2017-09-08T06:50:15.203Z,15.51
2017-09-08T06:52:44.459Z,15.57
2017-09-08T06:55:15.584Z,15.57
2017-09-08T06:57:45.559Z,15.59
2017-09-08T07:00:15.023Z,15.62
2017-09-08T07:02:44.211Z,15.74
2017-09-08T07:05:14.959Z,15.78
2017-09-08T07:07:44.130Z,15.99
2017-09-08T07:10:14.749Z,16.03
2017-09-08T07:12:44.219Z,16.04
2017-09-08T07:15:15.130Z,16.07
2017-09-08T07:17:44.339Z,16.20
2017-09-08T07:20:15.119Z,16.25
2017-09-08T07:22:44.487Z,16.35
2017-09-08T07:25:14.631Z,16.51
2017-09-08T07:27:44.339Z,16.61
2017-09-08T07:30:15.067Z,16.59
2017-09-08T07:32:44.759Z,16.67
2017-09-08T07:35:15.138Z,16.65
2017-09-08T07:37:44.429Z,16.75
2017-09-08T07:40:15.359Z,16.67
2017-09-08T07:42:45.119Z,16.76
2017-09-08T07:45:15.387Z,16.80
2017-09-08T07:47:44.896Z,16.82
2017-09-08T07:50:15.444Z,16.76
2017-09-08T07:52:44.928Z,16.76
2017-09-08T07:55:15.239Z,16.69
2017-09-08T07:57:44.923Z,16.79
2017-09-08T08:00:16.846Z,16.76
2017-09-08T08:02:46.545Z,16.74
2017-09-08T08:05:16.288Z,16.76
2017-09-08T08:07:45.622Z,16.88
2017-09-08T08:10:15.593Z,17.06
2017-09-08T08:12:45.236Z,17.17
2017-09-08T08:15:15.399Z,17.43
2017-09-08T08:17:45.451Z,17.54
2017-09-08T08:20:15.418Z,17.36
2017-09-08T08:22:46.031Z,17.46
2017-09-08T08:25:15.727Z,17.85
2017-09-08T08:27:45.500Z,17.89
2017-09-08T08:30:15.704Z,17.76
2017-09-08T08:32:45.286Z,18.10
2017-09-08T08:35:15.548Z,18.09
2017-09-08T08:37:45.191Z,18.27
2017-09-08T08:40:14.415Z,18.32
2017-09-08T08:42:44.111Z,18.65
2017-09-08T08:45:19.767Z,18.41
2017-09-08T08:47:49.158Z,17.90
2017-09-08T08:50:18.830Z,18.03
2017-09-08T08:52:48.012Z,17.79
2017-09-08T08:55:17.254Z,17.80
2017-09-08T08:57:47.135Z,17.71
2017-09-08T09:00:16.346Z,17.91
2017-09-08T09:02:45.534Z,17.99
2017-09-08T09:05:14.995Z,17.95
2017-09-08T09:10:08.734Z,17.71
2017-09-08T09:12:39.210Z,17.86
2017-09-08T09:15:08.447Z,17.72
2017-09-08T09:17:37.671Z,17.61
2017-09-08T09:20:07.286Z,17.56
2017-09-08T09:22:36.890Z,17.64
2017-09-08T09:25:06.186Z,17.62
2017-09-08T09:27:35.661Z,17.79
2017-09-08T09:30:04.774Z,17.79
2017-09-08T09:32:34.033Z,17.84
2017-09-08T09:35:03.531Z,17.85
2017-09-08T09:37:33.657Z,17.83
2017-09-08T09:40:03.087Z,17.93
2017-09-08T09:42:32.628Z,18.04
2017-09-08T09:45:01.806Z,18.05
2017-09-08T09:47:31.013Z,18.02
2017-09-08T09:50:00.495Z,18.21
2017-09-08T09:52:29.700Z,18.45
2017-09-08T09:54:58.858Z,18.57
2017-09-08T09:57:28.398Z,18.61
2017-09-08T09:59:58.895Z,18.82
2017-09-08T10:02:28.151Z,18.54
2017-09-08T10:04:57.662Z,18.46
2017-09-08T10:07:26.870Z,18.63
2017-09-08T10:09:56.122Z,18.82
2017-09-08T10:12:25.590Z,19.19
2017-09-08T10:14:54.838Z,19.47
2017-09-08T10:17:24.772Z,19.31
2017-09-08T10:19:54.259Z,19.53
2017-09-08T10:22:23.415Z,19.38
2017-09-08T10:24:52.627Z,19.33
2017-09-08T10:27:22.250Z,19.07
2017-09-08T10:29:51.434Z,19.10
2017-09-08T10:32:21.937Z,18.97
2017-09-08T10:34:51.472Z,19.00
2017-09-08T10:37:20.712Z,19.15
2017-09-08T10:39:49.990Z,18.99
2017-09-08T10:42:19.583Z,19.30
2017-09-08T10:44:49.135Z,19.60
2017-09-08T10:47:18.406Z,19.86
2017-09-08T10:49:47.905Z,19.84
2017-09-08T10:52:18.169Z,19.96
2017-09-08T10:54:47.318Z,19.73
2017-09-08T10:57:16.875Z,19.89
2017-09-08T10:59:46.166Z,20.00
2017-09-08T11:02:15.402Z,19.73
2017-09-08T11:04:46.367Z,19.78
2017-09-08T11:07:15.589Z,19.99
2017-09-08T11:09:44.779Z,19.88
2017-09-08T11:12:15.415Z,19.56
2017-09-08T11:14:44.623Z,19.72
2017-09-08T11:17:15.270Z,19.60
2017-09-08T11:19:46.271Z,19.32
2017-09-08T11:22:15.571Z,19.39
2017-09-08T11:24:44.771Z,19.10
2017-09-08T11:27:16.110Z,19.14
2017-09-08T11:29:45.351Z,18.85
2017-09-08T11:32:19.214Z,18.81
2017-09-08T11:36:54.846Z,18.51
2017-09-08T11:39:24.363Z,18.41
2017-09-08T11:41:57.120Z,18.60
2017-09-08T11:44:26.495Z,18.68
2017-09-08T11:46:55.808Z,18.72
2017-09-08T11:49:25.533Z,18.67
2017-09-08T11:51:54.955Z,18.61
2017-09-08T11:54:24.340Z,18.63
2017-09-08T11:56:53.887Z,18.89
2017-09-08T11:59:23.235Z,19.11
2017-09-08T12:01:52.619Z,19.11
2017-09-08T12:04:23.276Z,19.20
2017-09-08T12:06:52.972Z,19.26
2017-09-08T12:09:22.957Z,19.30
2017-09-08T12:11:52.644Z,19.02
2017-09-08T12:14:21.951Z,18.92
2017-09-08T12:16:51.274Z,18.83
2017-09-08T12:19:20.931Z,18.89
2017-09-08T12:21:50.154Z,18.87
2017-09-08T12:24:19.427Z,18.80
2017-09-08T12:26:49.428Z,18.81
2017-09-08T12:29:18.828Z,18.75
2017-09-08T12:31:48.069Z,19.10
2017-09-08T12:34:17.600Z,19.42
2017-09-08T12:36:46.789Z,19.52
2017-09-08T12:39:15.971Z,19.44
2017-09-08T12:41:52.334Z,19.46
2017-09-08T12:44:21.611Z,19.32
2017-09-08T12:46:50.823Z,19.18
2017-09-08T12:49:20.544Z,19.27
2017-09-08T12:51:49.803Z,19.16
2017-09-08T12:54:19.661Z,19.33
2017-09-08T12:56:49.998Z,19.41
2017-09-08T12:59:20.608Z,19.22
2017-09-08T13:01:49.858Z,19.07
2017-09-08T13:04:19.698Z,19.03
2017-09-08T13:06:48.884Z,19.21
2017-09-08T13:09:18.275Z,19.31
2017-09-08T13:11:47.871Z,19.34
2017-09-08T13:14:17.190Z,19.27
2017-09-08T13:16:46.743Z,19.29
2017-09-08T13:19:16.351Z,19.30
2017-09-08T13:21:45.763Z,19.44
2017-09-08T13:24:15.171Z,19.22
2017-09-08T13:26:44.760Z,19.07
2017-09-08T13:29:17.072Z,19.10
2017-09-08T13:31:46.984Z,19.17
2017-09-08T13:34:16.788Z,19.07
2017-09-08T13:36:46.331Z,19.09
2017-09-08T13:39:15.635Z,19.07
2017-09-08T13:41:46.155Z,19.07
2017-09-08T13:44:15.331Z,19.05
2017-09-08T13:46:44.647Z,18.85
2017-09-08T13:49:14.404Z,18.65
2017-09-08T13:51:43.691Z,18.80
2017-09-08T13:54:13.853Z,18.74
2017-09-08T13:56:43.800Z,18.82
2017-09-08T13:59:13.667Z,18.76
2017-09-08T14:01:43.040Z,18.62
2017-09-08T14:04:14.643Z,18.55
2017-09-08T14:06:43.910Z,18.52
2017-09-08T14:09:13.195Z,18.59
2017-09-08T14:11:42.716Z,18.53
2017-09-08T14:14:14.538Z,18.48
2017-09-08T14:16:43.787Z,18.41
2017-09-08T14:19:14.103Z,18.39
2017-09-08T14:21:43.271Z,18.32
2017-09-08T14:24:12.540Z,18.27
2017-09-08T14:26:42.271Z,18.38
2017-09-08T14:29:11.630Z,18.18
2017-09-08T14:31:40.818Z,18.16
2017-09-08T14:34:11.994Z,18.22
2017-09-08T14:36:41.281Z,18.09
2017-09-08T14:39:10.692Z,18.12
2017-09-08T14:41:40.634Z,18.07
2017-09-08T14:44:09.992Z,18.12
2017-09-08T14:46:39.163Z,18.19
2017-09-08T14:49:08.960Z,18.22
2017-09-08T14:51:38.919Z,18.32
2017-09-08T14:54:09.828Z,18.25
2017-09-08T14:56:39.451Z,18.37
2017-09-08T14:59:09.147Z,18.41
2017-09-08T15:01:38.450Z,18.40
2017-09-08T15:04:08.567Z,18.47
2017-09-08T15:06:37.847Z,18.45
2017-09-08T15:09:07.092Z,18.38
2017-09-08T15:11:36.809Z,18.29
2017-09-08T15:14:06.116Z,18.33
2017-09-08T15:16:35.378Z,18.29
2017-09-08T15:19:05.378Z,18.30
2017-09-08T15:21:34.794Z,18.25
2017-09-08T15:24:05.440Z,18.30
2017-09-08T15:26:35.004Z,18.15
2017-09-08T15:29:04.654Z,18.23
2017-09-08T15:31:37.031Z,18.13
2017-09-08T15:34:12.683Z,18.18
2017-09-08T15:36:43.607Z,18.17
2017-09-08T15:39:20.464Z,18.16
2017-09-08T15:41:52.270Z,18.08
2017-09-08T15:44:26.232Z,18.03
2017-09-08T15:47:00.648Z,17.99
2017-09-08T15:49:39.093Z,17.96
2017-09-08T15:52:12.508Z,17.95
2017-09-08T15:54:55.990Z,17.91
2017-09-08T15:57:32.771Z,17.89
2017-09-08T16:00:05.099Z,17.87
2017-09-08T16:02:53.352Z,17.96
2017-09-08T16:05:33.416Z,17.84
2017-09-08T16:08:04.532Z,17.81
2017-09-08T16:10:33.822Z,17.80
2017-09-08T16:13:03.025Z,17.73
2017-09-08T16:15:32.621Z,17.75
2017-09-08T16:18:01.846Z,17.75
2017-09-08T16:20:31.020Z,17.66
2017-09-08T16:23:00.534Z,17.71
2017-09-08T16:25:29.930Z,17.68
2017-09-08T16:27:59.448Z,17.62
2017-09-08T16:30:29.080Z,17.65
2017-09-08T16:32:58.279Z,17.64
2017-09-08T16:35:27.626Z,17.57
2017-09-08T16:37:57.104Z,17.54
2017-09-08T16:40:26.343Z,17.54
2017-09-08T16:42:55.652Z,17.57
2017-09-08T16:45:25.243Z,17.50
2017-09-08T16:47:54.533Z,17.51
2017-09-08T16:50:26.793Z,17.50
2017-09-08T16:52:59.242Z,17.52
2017-09-08T16:55:32.669Z,17.45
2017-09-08T16:58:16.147Z,17.47
2017-09-08T17:01:00.728Z,17.43
2017-09-08T17:03:44.834Z,17.44
2017-09-08T17:06:39.619Z,17.46
2017-09-08T17:09:20.795Z,17.47
2017-09-08T17:11:52.393Z,17.42
2017-09-08T17:14:28.879Z,17.37
2017-09-08T17:17:03.080Z,17.40
2017-09-08T17:19:48.777Z,17.37
2017-09-08T17:22:38.951Z,17.33
2017-09-08T17:25:30.962Z,17.33
2017-09-08T17:28:03.057Z,17.31
2017-09-08T17:31:02.718Z,17.31
2017-09-08T17:33:59.314Z,17.25
2017-09-08T17:36:40.260Z,17.12
2017-09-08T17:39:32.129Z,17.21
2017-09-08T17:42:14.303Z,17.24
2017-09-08T17:44:56.707Z,17.26
2017-09-08T17:47:31.012Z,17.23
2017-09-08T17:50:06.413Z,17.15
2017-09-08T17:52:40.159Z,17.22
2017-09-08T17:55:17.867Z,17.14
2017-09-08T17:58:03.948Z,17.15
2017-09-08T18:00:35.174Z,17.12
2017-09-08T18:03:08.195Z,17.01
2017-09-08T18:05:37.704Z,17.04
2017-09-08T18:08:06.903Z,17.03
2017-09-08T18:10:47.283Z,17.08
2017-09-08T18:13:16.509Z,17.12
2017-09-08T18:15:45.821Z,17.03
2017-09-08T18:18:15.325Z,17.08
2017-09-08T18:20:44.637Z,17.08
2017-09-08T18:23:14.896Z,17.00
2017-09-08T18:25:44.539Z,17.03
2017-09-08T18:28:15.433Z,17.04
2017-09-08T18:30:44.835Z,17.10
2017-09-08T18:33:14.343Z,17.12
2017-09-08T18:35:43.723Z,17.07
2017-09-08T18:38:14.712Z,17.05
2017-09-08T18:40:44.303Z,17.02
2017-09-08T18:43:14.859Z,17.04
2017-09-08T18:45:44.119Z,17.05
2017-09-08T18:48:13.614Z,17.03
2017-09-08T18:50:42.894Z,16.99
2017-09-08T18:53:14.059Z,17.07
2017-09-08T18:55:43.825Z,16.96
2017-09-08T18:58:13.032Z,16.97
2017-09-08T19:00:42.471Z,16.97
2017-09-08T19:03:13.903Z,16.81
2017-09-08T19:05:43.226Z,16.61
2017-09-08T19:08:12.482Z,16.69
2017-09-08T19:10:42.151Z,16.63
2017-09-08T19:13:11.301Z,16.60
2017-09-08T19:15:40.477Z,16.56
2017-09-08T19:18:10.098Z,16.50
2017-09-08T19:20:39.350Z,16.48
2017-09-08T19:23:08.655Z,16.46
2017-09-08T19:25:39.375Z,16.43
2017-09-08T19:28:09.176Z,16.39
2017-09-08T19:30:38.459Z,16.42
2017-09-08T19:33:07.959Z,16.40
2017-09-08T19:35:37.154Z,16.43
2017-09-08T19:38:06.399Z,16.35
2017-09-08T19:40:35.926Z,16.38
2017-09-08T19:43:05.191Z,16.34
2017-09-08T19:45:34.459Z,16.36
2017-09-08T19:48:05.504Z,16.32
2017-09-08T19:50:35.017Z,16.37
2017-09-08T19:53:04.353Z,16.38
2017-09-08T19:55:34.005Z,16.38
2017-09-08T19:58:03.587Z,16.42
2017-09-08T20:00:32.831Z,16.43
2017-09-08T20:03:02.340Z,16.44
2017-09-08T20:05:31.530Z,16.44
2017-09-08T20:08:00.720Z,16.46
2017-09-08T20:10:30.289Z,16.50
2017-09-08T20:12:59.527Z,16.49
2017-09-08T20:15:28.686Z,16.49
2017-09-08T20:17:58.330Z,16.49
2017-09-08T20:20:27.549Z,16.51
2017-09-08T20:22:56.762Z,16.49
2017-09-08T20:25:26.749Z,16.47
2017-09-08T20:27:56.133Z,16.53
2017-09-08T20:30:25.315Z,16.51
2017-09-08T20:32:54.913Z,16.57
2017-09-08T20:35:24.164Z,16.60
2017-09-08T20:37:53.356Z,16.66
2017-09-08T20:40:22.849Z,16.58
2017-09-08T20:42:52.060Z,16.57
2017-09-08T20:45:21.251Z,16.56
2017-09-08T20:47:50.716Z,16.56
2017-09-08T20:50:20.024Z,16.55
2017-09-08T20:52:49.196Z,16.61
2017-09-08T20:55:18.799Z,16.51
2017-09-08T20:57:48.090Z,16.55
2017-09-08T21:00:21.852Z,16.57
2017-09-08T21:02:51.350Z,16.51
2017-09-08T21:05:20.602Z,16.58
2017-09-08T21:07:50.003Z,16.54
2017-09-08T21:10:19.614Z,16.50
2017-09-08T21:12:48.895Z,16.51
2017-09-08T21:15:18.287Z,16.46
2017-09-08T21:17:47.877Z,16.49
2017-09-08T21:20:17.075Z,16.48
2017-09-08T21:22:46.268Z,16.46
2017-09-08T21:25:15.748Z,16.50
2017-09-08T21:27:44.951Z,16.51
2017-09-08T21:30:16.077Z,16.47
2017-09-08T21:32:45.523Z,16.49
2017-09-08T21:35:14.767Z,16.46
2017-09-08T21:37:44.311Z,16.43
2017-09-08T21:40:15.664Z,16.46
2017-09-08T21:42:46.147Z,16.49
2017-09-08T21:45:16.429Z,16.46
2017-09-08T21:47:47.163Z,16.50
2017-09-08T21:50:16.318Z,16.48
2017-09-08T21:52:45.591Z,16.48
2017-09-08T21:55:16.711Z,16.46
2017-09-08T21:57:46.226Z,16.47
2017-09-08T22:00:15.702Z,16.46
2017-09-08T22:02:45.339Z,16.40
2017-09-08T22:05:15.254Z,16.41
2017-09-08T22:07:44.598Z,16.43
2017-09-08T22:10:14.391Z,16.46
2017-09-08T22:12:44.115Z,16.43
2017-09-08T22:15:13.347Z,16.46
2017-09-08T22:17:43.426Z,16.43
2017-09-08T22:20:14.295Z,16.44
2017-09-08T22:22:43.916Z,16.48
2017-09-08T22:25:13.416Z,16.45
2017-09-08T22:27:42.676Z,16.41
2017-09-08T22:30:12.391Z,16.45
2017-09-08T22:32:43.752Z,16.47
2017-09-08T22:35:14.404Z,16.48
2017-09-08T22:37:45.196Z,16.46
2017-09-08T22:40:15.049Z,16.46
2017-09-08T22:42:45.040Z,16.47
2017-09-08T22:45:15.604Z,16.45
2017-09-08T22:47:44.858Z,16.47
2017-09-08T22:50:15.662Z,16.48
2017-09-08T22:52:45.266Z,16.46
2017-09-08T22:55:14.454Z,16.45
2017-09-08T22:57:43.653Z,16.50
2017-09-08T23:00:13.293Z,16.50
2017-09-08T23:02:42.502Z,16.45
2017-09-08T23:05:11.692Z,16.46
2017-09-08T23:07:41.151Z,16.51
2017-09-08T23:10:12.237Z,16.52
2017-09-08T23:12:41.414Z,16.48
2017-09-08T23:15:12.116Z,16.54
2017-09-08T23:17:41.274Z,16.45
2017-09-08T23:20:12.233Z,16.41
2017-09-08T23:22:41.727Z,16.38
2017-09-08T23:25:11.880Z,16.39
2017-09-08T23:27:41.119Z,16.37
2017-09-08T23:30:11.928Z,16.35
2017-09-08T23:32:41.205Z,16.39
2017-09-08T23:35:11.583Z,16.40
2017-09-08T23:37:41.583Z,16.43
2017-09-08T23:40:12.020Z,16.46
2017-09-08T23:42:41.590Z,16.40
2017-09-08T23:45:12.479Z,16.47
2017-09-08T23:47:42.445Z,16.49
2017-09-08T23:50:15.145Z,16.53
2017-09-08T23:52:44.315Z,16.58
2017-09-08T23:55:15.887Z,16.60
2017-09-08T23:57:45.467Z,16.56
